sensor_id;sensor_type;location;lat;lon;timestamp;P1;durP1;ratioP1;P2;durP2;ratioP2
71176;SDS011;58877;51.992;4.504;2022-11-15T00:01:53;29.90;;;28.68;;
71176;SDS011;58877;51.992;4.504;2022-11-15T00:04:19;29.18;;;28.14;;
71176;SDS011;58877;51.992;4.504;2022-11-15T00:06:45;29.97;;;28.52;;
71176;SDS011;58877;51.992;4.504;2022-11-15T00:09:11;31.10;;;29.17;;
71176;SDS011;58877;51.992;4.504;2022-11-15T00:11:36;30.47;;;28.66;;
71176;SDS011;58877;51.992;4.504;2022-11-15T00:14:02;29.21;;;27.98;;
71176;SDS011;58877;51.992;4.504;2022-11-15T00:16:28;29.13;;;27.89;;
71176;SDS011;58877;51.992;4.504;2022-11-15T00:18:53;29.58;;;28.09;;
71176;SDS011;58877;51.992;4.504;2022-11-15T00:21:19;30.08;;;28.35;;
71176;SDS011;58877;51.992;4.504;2022-11-15T00:23:44;28.34;;;26.98;;
71176;SDS011;58877;51.992;4.504;2022-11-15T00:26:14;29.25;;;27.88;;
71176;SDS011;58877;51.992;4.504;2022-11-15T00:28:41;29.79;;;28.47;;
71176;SDS011;58877;51.992;4.504;2022-11-15T00:31:08;30.12;;;28.23;;
71176;SDS011;58877;51.992;4.504;2022-11-15T00:33:39;29.40;;;27.35;;
71176;SDS011;58877;51.992;4.504;2022-11-15T00:36:07;30.39;;;28.39;;
71176;SDS011;58877;51.992;4.504;2022-11-15T00:38:36;30.19;;;28.00;;
71176;SDS011;58877;51.992;4.504;2022-11-15T00:41:05;32.20;;;29.87;;
71176;SDS011;58877;51.992;4.504;2022-11-15T00:43:35;31.01;;;29.02;;
71176;SDS011;58877;51.992;4.504;2022-11-15T00:46:01;30.68;;;28.99;;
71176;SDS011;58877;51.992;4.504;2022-11-15T00:48:27;31.81;;;29.46;;
71176;SDS011;58877;51.992;4.504;2022-11-15T00:50:57;31.61;;;29.58;;
71176;SDS011;58877;51.992;4.504;2022-11-15T00:53:22;31.60;;;29.45;;
71176;SDS011;58877;51.992;4.504;2022-11-15T00:55:48;30.40;;;28.66;;
71176;SDS011;58877;51.992;4.504;2022-11-15T00:58:13;31.63;;;29.57;;
71176;SDS011;58877;51.992;4.504;2022-11-15T01:00:39;31.50;;;29.80;;
71176;SDS011;58877;51.992;4.504;2022-11-15T01:03:04;31.96;;;29.81;;
71176;SDS011;58877;51.992;4.504;2022-11-15T01:05:30;31.16;;;29.24;;
71176;SDS011;58877;51.992;4.504;2022-11-15T01:07:56;32.76;;;30.61;;
71176;SDS011;58877;51.992;4.504;2022-11-15T01:10:22;32.22;;;29.99;;
71176;SDS011;58877;51.992;4.504;2022-11-15T01:12:48;31.55;;;29.64;;
71176;SDS011;58877;51.992;4.504;2022-11-15T01:15:14;34.53;;;31.81;;
71176;SDS011;58877;51.992;4.504;2022-11-15T01:17:39;35.45;;;32.12;;
71176;SDS011;58877;51.992;4.504;2022-11-15T01:20:06;34.41;;;31.24;;
71176;SDS011;58877;51.992;4.504;2022-11-15T01:22:41;31.96;;;29.92;;
71176;SDS011;58877;51.992;4.504;2022-11-15T01:25:06;33.74;;;31.61;;
71176;SDS011;58877;51.992;4.504;2022-11-15T01:27:32;35.10;;;32.18;;
71176;SDS011;58877;51.992;4.504;2022-11-15T01:29:57;34.41;;;31.84;;
71176;SDS011;58877;51.992;4.504;2022-11-15T01:32:23;34.66;;;32.22;;
71176;SDS011;58877;51.992;4.504;2022-11-15T01:34:48;33.40;;;30.84;;
71176;SDS011;58877;51.992;4.504;2022-11-15T01:37:14;36.52;;;33.58;;
71176;SDS011;58877;51.992;4.504;2022-11-15T01:39:39;34.50;;;31.92;;
71176;SDS011;58877;51.992;4.504;2022-11-15T01:42:05;33.57;;;31.41;;
71176;SDS011;58877;51.992;4.504;2022-11-15T01:44:34;34.99;;;32.35;;
71176;SDS011;58877;51.992;4.504;2022-11-15T01:47:11;32.62;;;31.18;;
71176;SDS011;58877;51.992;4.504;2022-11-15T01:49:54;34.65;;;31.84;;
71176;SDS011;58877;51.992;4.504;2022-11-15T01:52:31;33.60;;;31.70;;
71176;SDS011;58877;51.992;4.504;2022-11-15T01:55:05;34.73;;;32.75;;
71176;SDS011;58877;51.992;4.504;2022-11-15T01:57:36;34.09;;;32.05;;
71176;SDS011;58877;51.992;4.504;2022-11-15T02:00:03;34.78;;;32.69;;
71176;SDS011;58877;51.992;4.504;2022-11-15T02:02:31;33.85;;;31.95;;
71176;SDS011;58877;51.992;4.504;2022-11-15T02:04:58;33.86;;;31.68;;
71176;SDS011;58877;51.992;4.504;2022-11-15T02:07:24;32.78;;;31.05;;
71176;SDS011;58877;51.992;4.504;2022-11-15T02:09:51;33.32;;;31.30;;
71176;SDS011;58877;51.992;4.504;2022-11-15T02:12:18;33.82;;;32.04;;
71176;SDS011;58877;51.992;4.504;2022-11-15T02:14:48;31.60;;;29.83;;
71176;SDS011;58877;51.992;4.504;2022-11-15T02:31:10;33.16;;;30.98;;
71176;SDS011;58877;51.992;4.504;2022-11-15T02:36:25;30.94;;;29.90;;
71176;SDS011;58877;51.992;4.504;2022-11-15T02:41:46;30.94;;;29.62;;
71176;SDS011;58877;51.992;4.504;2022-11-15T02:44:26;29.20;;;28.28;;
71176;SDS011;58877;51.992;4.504;2022-11-15T02:47:10;29.26;;;28.54;;
71176;SDS011;58877;51.992;4.504;2022-11-15T02:49:39;28.71;;;28.11;;
71176;SDS011;58877;51.992;4.504;2022-11-15T02:52:14;29.08;;;28.10;;
71176;SDS011;58877;51.992;4.504;2022-11-15T02:54:41;28.45;;;27.57;;
71176;SDS011;58877;51.992;4.504;2022-11-15T02:57:10;27.59;;;26.90;;
71176;SDS011;58877;51.992;4.504;2022-11-15T03:05:45;26.02;;;25.73;;
71176;SDS011;58877;51.992;4.504;2022-11-15T03:18:41;22.40;;;21.91;;
71176;SDS011;58877;51.992;4.504;2022-11-15T03:21:16;20.88;;;20.71;;
71176;SDS011;58877;51.992;4.504;2022-11-15T03:23:45;20.62;;;20.42;;
71176;SDS011;58877;51.992;4.504;2022-11-15T03:26:15;20.70;;;20.54;;
71176;SDS011;58877;51.992;4.504;2022-11-15T03:28:50;19.74;;;19.40;;
71176;SDS011;58877;51.992;4.504;2022-11-15T03:31:22;19.85;;;19.58;;
71176;SDS011;58877;51.992;4.504;2022-11-15T03:34:26;18.68;;;18.56;;
71176;SDS011;58877;51.992;4.504;2022-11-15T03:37:01;18.50;;;18.43;;
71176;SDS011;58877;51.992;4.504;2022-11-15T03:39:26;17.70;;;17.69;;
71176;SDS011;58877;51.992;4.504;2022-11-15T03:47:54;16.57;;;16.52;;
71176;SDS011;58877;51.992;4.504;2022-11-15T03:50:27;15.93;;;15.90;;
71176;SDS011;58877;51.992;4.504;2022-11-15T03:52:54;16.09;;;16.01;;
71176;SDS011;58877;51.992;4.504;2022-11-15T03:55:23;16.04;;;15.93;;
71176;SDS011;58877;51.992;4.504;2022-11-15T03:57:50;16.68;;;16.61;;
71176;SDS011;58877;51.992;4.504;2022-11-15T04:00:21;16.46;;;16.35;;
71176;SDS011;58877;51.992;4.504;2022-11-15T04:02:47;15.95;;;15.91;;
71176;SDS011;58877;51.992;4.504;2022-11-15T04:05:13;15.34;;;15.32;;
71176;SDS011;58877;51.992;4.504;2022-11-15T04:07:38;15.00;;;14.96;;
71176;SDS011;58877;51.992;4.504;2022-11-15T04:10:04;14.26;;;14.23;;
71176;SDS011;58877;51.992;4.504;2022-11-15T04:12:34;13.52;;;13.50;;
71176;SDS011;58877;51.992;4.504;2022-11-15T04:15:06;13.17;;;13.11;;
71176;SDS011;58877;51.992;4.504;2022-11-15T04:17:35;12.87;;;12.83;;
71176;SDS011;58877;51.992;4.504;2022-11-15T04:20:06;12.24;;;12.23;;
71176;SDS011;58877;51.992;4.504;2022-11-15T04:23:10;11.78;;;11.71;;
71176;SDS011;58877;51.992;4.504;2022-11-15T04:26:02;11.52;;;11.44;;
71176;SDS011;58877;51.992;4.504;2022-11-15T04:28:32;11.17;;;11.12;;
71176;SDS011;58877;51.992;4.504;2022-11-15T04:30:58;11.17;;;11.07;;
71176;SDS011;58877;51.992;4.504;2022-11-15T04:33:24;10.94;;;10.90;;
71176;SDS011;58877;51.992;4.504;2022-11-15T04:35:50;10.39;;;10.37;;
71176;SDS011;58877;51.992;4.504;2022-11-15T04:38:35;10.63;;;10.58;;
71176;SDS011;58877;51.992;4.504;2022-11-15T04:41:01;10.89;;;10.86;;
71176;SDS011;58877;51.992;4.504;2022-11-15T04:43:27;10.86;;;10.80;;
71176;SDS011;58877;51.992;4.504;2022-11-15T04:45:54;10.13;;;10.08;;
71176;SDS011;58877;51.992;4.504;2022-11-15T04:48:20;11.17;;;11.15;;
71176;SDS011;58877;51.992;4.504;2022-11-15T04:50:47;10.78;;;10.78;;
71176;SDS011;58877;51.992;4.504;2022-11-15T04:53:13;10.24;;;10.24;;
71176;SDS011;58877;51.992;4.504;2022-11-15T04:55:38;10.53;;;10.48;;
71176;SDS011;58877;51.992;4.504;2022-11-15T04:58:04;10.79;;;10.70;;
71176;SDS011;58877;51.992;4.504;2022-11-15T05:00:30;10.35;;;10.31;;
71176;SDS011;58877;51.992;4.504;2022-11-15T05:02:56;10.80;;;10.78;;
71176;SDS011;58877;51.992;4.504;2022-11-15T05:05:41;10.49;;;10.47;;
71176;SDS011;58877;51.992;4.504;2022-11-15T05:08:07;10.48;;;10.47;;
71176;SDS011;58877;51.992;4.504;2022-11-15T05:10:33;10.18;;;10.17;;
71176;SDS011;58877;51.992;4.504;2022-11-15T05:12:58;10.16;;;10.13;;
71176;SDS011;58877;51.992;4.504;2022-11-15T05:15:24;10.05;;;10.00;;
71176;SDS011;58877;51.992;4.504;2022-11-15T05:17:57;9.45;;;9.43;;
71176;SDS011;58877;51.992;4.504;2022-11-15T05:20:24;9.82;;;9.80;;
71176;SDS011;58877;51.992;4.504;2022-11-15T05:22:50;9.56;;;9.53;;
71176;SDS011;58877;51.992;4.504;2022-11-15T05:25:15;9.20;;;9.18;;
71176;SDS011;58877;51.992;4.504;2022-11-15T05:27:41;9.03;;;9.03;;
71176;SDS011;58877;51.992;4.504;2022-11-15T05:30:07;9.86;;;9.85;;
71176;SDS011;58877;51.992;4.504;2022-11-15T05:32:33;9.35;;;9.31;;
71176;SDS011;58877;51.992;4.504;2022-11-15T05:34:59;9.39;;;9.36;;
71176;SDS011;58877;51.992;4.504;2022-11-15T05:37:24;9.06;;;9.03;;
71176;SDS011;58877;51.992;4.504;2022-11-15T05:39:50;8.87;;;8.85;;
71176;SDS011;58877;51.992;4.504;2022-11-15T05:42:15;8.89;;;8.89;;
71176;SDS011;58877;51.992;4.504;2022-11-15T05:44:43;8.82;;;8.81;;
71176;SDS011;58877;51.992;4.504;2022-11-15T05:47:15;8.55;;;8.55;;
71176;SDS011;58877;51.992;4.504;2022-11-15T05:49:50;7.96;;;7.96;;
71176;SDS011;58877;51.992;4.504;2022-11-15T05:52:20;8.36;;;8.36;;
71176;SDS011;58877;51.992;4.504;2022-11-15T05:54:53;7.84;;;7.84;;
71176;SDS011;58877;51.992;4.504;2022-11-15T05:57:24;7.42;;;7.41;;
71176;SDS011;58877;51.992;4.504;2022-11-15T05:59:50;7.34;;;7.32;;
71176;SDS011;58877;51.992;4.504;2022-11-15T06:02:17;7.25;;;7.21;;
71176;SDS011;58877;51.992;4.504;2022-11-15T06:04:42;6.74;;;6.70;;
71176;SDS011;58877;51.992;4.504;2022-11-15T06:07:08;7.14;;;7.11;;
71176;SDS011;58877;51.992;4.504;2022-11-15T06:09:33;6.38;;;6.35;;
71176;SDS011;58877;51.992;4.504;2022-11-15T06:11:59;6.24;;;6.23;;
71176;SDS011;58877;51.992;4.504;2022-11-15T06:14:24;5.78;;;5.78;;
71176;SDS011;58877;51.992;4.504;2022-11-15T06:16:50;6.57;;;6.52;;
71176;SDS011;58877;51.992;4.504;2022-11-15T06:19:15;6.43;;;6.33;;
71176;SDS011;58877;51.992;4.504;2022-11-15T06:21:42;6.26;;;6.16;;
71176;SDS011;58877;51.992;4.504;2022-11-15T06:24:07;5.43;;;5.39;;
71176;SDS011;58877;51.992;4.504;2022-11-15T06:26:33;5.75;;;5.67;;
71176;SDS011;58877;51.992;4.504;2022-11-15T06:28:58;5.42;;;5.37;;
71176;SDS011;58877;51.992;4.504;2022-11-15T06:31:24;5.80;;;5.78;;
71176;SDS011;58877;51.992;4.504;2022-11-15T06:33:50;5.58;;;5.51;;
71176;SDS011;58877;51.992;4.504;2022-11-15T06:36:16;5.50;;;5.44;;
71176;SDS011;58877;51.992;4.504;2022-11-15T06:38:42;5.05;;;5.03;;
71176;SDS011;58877;51.992;4.504;2022-11-15T06:41:09;4.88;;;4.88;;
71176;SDS011;58877;51.992;4.504;2022-11-15T06:43:37;5.41;;;5.39;;
71176;SDS011;58877;51.992;4.504;2022-11-15T06:46:04;5.27;;;5.24;;
71176;SDS011;58877;51.992;4.504;2022-11-15T06:48:32;5.49;;;5.43;;
71176;SDS011;58877;51.992;4.504;2022-11-15T06:50:59;4.87;;;4.82;;
71176;SDS011;58877;51.992;4.504;2022-11-15T06:53:26;5.10;;;5.02;;
71176;SDS011;58877;51.992;4.504;2022-11-15T06:55:53;4.61;;;4.56;;
71176;SDS011;58877;51.992;4.504;2022-11-15T06:58:23;5.06;;;4.99;;
71176;SDS011;58877;51.992;4.504;2022-11-15T07:00:48;4.90;;;4.82;;
71176;SDS011;58877;51.992;4.504;2022-11-15T07:03:14;4.86;;;4.78;;
71176;SDS011;58877;51.992;4.504;2022-11-15T07:05:39;5.01;;;4.91;;
71176;SDS011;58877;51.992;4.504;2022-11-15T07:08:05;4.97;;;4.92;;
71176;SDS011;58877;51.992;4.504;2022-11-15T07:10:30;4.38;;;4.34;;
71176;SDS011;58877;51.992;4.504;2022-11-15T07:12:56;4.60;;;4.56;;
71176;SDS011;58877;51.992;4.504;2022-11-15T07:15:25;4.60;;;4.57;;
71176;SDS011;58877;51.992;4.504;2022-11-15T07:17:51;4.76;;;4.66;;
71176;SDS011;58877;51.992;4.504;2022-11-15T07:20:19;4.21;;;4.12;;
71176;SDS011;58877;51.992;4.504;2022-11-15T07:22:45;4.92;;;4.84;;
71176;SDS011;58877;51.992;4.504;2022-11-15T07:25:11;4.26;;;4.22;;
71176;SDS011;58877;51.992;4.504;2022-11-15T07:27:37;4.09;;;4.03;;
71176;SDS011;58877;51.992;4.504;2022-11-15T07:30:03;4.00;;;3.92;;
71176;SDS011;58877;51.992;4.504;2022-11-15T07:32:32;4.08;;;4.01;;
71176;SDS011;58877;51.992;4.504;2022-11-15T07:34:59;4.08;;;4.04;;
71176;SDS011;58877;51.992;4.504;2022-11-15T07:37:24;4.53;;;4.44;;
71176;SDS011;58877;51.992;4.504;2022-11-15T07:39:50;4.53;;;4.47;;
71176;SDS011;58877;51.992;4.504;2022-11-15T07:42:15;4.35;;;4.31;;
71176;SDS011;58877;51.992;4.504;2022-11-15T07:44:59;4.47;;;4.44;;
71176;SDS011;58877;51.992;4.504;2022-11-15T07:47:25;4.71;;;4.68;;
71176;SDS011;58877;51.992;4.504;2022-11-15T07:49:54;4.75;;;4.70;;
71176;SDS011;58877;51.992;4.504;2022-11-15T07:52:19;4.68;;;4.60;;
71176;SDS011;58877;51.992;4.504;2022-11-15T07:54:48;4.55;;;4.51;;
71176;SDS011;58877;51.992;4.504;2022-11-15T07:57:14;4.14;;;4.12;;
71176;SDS011;58877;51.992;4.504;2022-11-15T07:59:39;4.65;;;4.61;;
71176;SDS011;58877;51.992;4.504;2022-11-15T08:02:05;4.12;;;4.10;;
71176;SDS011;58877;51.992;4.504;2022-11-15T08:04:30;4.46;;;4.45;;
71176;SDS011;58877;51.992;4.504;2022-11-15T08:06:56;4.23;;;4.23;;
71176;SDS011;58877;51.992;4.504;2022-11-15T08:09:22;4.53;;;4.53;;
71176;SDS011;58877;51.992;4.504;2022-11-15T08:11:48;4.04;;;4.04;;
71176;SDS011;58877;51.992;4.504;2022-11-15T08:14:14;4.40;;;4.40;;
71176;SDS011;58877;51.992;4.504;2022-11-15T08:16:39;4.51;;;4.51;;
71176;SDS011;58877;51.992;4.504;2022-11-15T08:19:08;4.77;;;4.77;;
71176;SDS011;58877;51.992;4.504;2022-11-15T08:21:34;4.84;;;4.84;;
71176;SDS011;58877;51.992;4.504;2022-11-15T08:24:00;5.33;;;5.33;;
71176;SDS011;58877;51.992;4.504;2022-11-15T08:26:28;5.31;;;5.31;;
71176;SDS011;58877;51.992;4.504;2022-11-15T08:28:55;5.50;;;5.50;;
71176;SDS011;58877;51.992;4.504;2022-11-15T08:31:20;5.35;;;5.35;;
71176;SDS011;58877;51.992;4.504;2022-11-15T08:33:46;5.14;;;5.13;;
71176;SDS011;58877;51.992;4.504;2022-11-15T08:36:15;5.75;;;5.75;;
71176;SDS011;58877;51.992;4.504;2022-11-15T08:38:42;5.61;;;5.61;;
71176;SDS011;58877;51.992;4.504;2022-11-15T08:41:16;5.62;;;5.61;;
71176;SDS011;58877;51.992;4.504;2022-11-15T08:44:03;5.45;;;5.45;;
71176;SDS011;58877;51.992;4.504;2022-11-15T08:46:33;5.62;;;5.60;;
71176;SDS011;58877;51.992;4.504;2022-11-15T08:48:58;5.67;;;5.64;;
71176;SDS011;58877;51.992;4.504;2022-11-15T08:51:27;5.65;;;5.65;;
71176;SDS011;58877;51.992;4.504;2022-11-15T08:53:52;5.48;;;5.47;;
71176;SDS011;58877;51.992;4.504;2022-11-15T08:56:18;5.41;;;5.41;;
71176;SDS011;58877;51.992;4.504;2022-11-15T08:58:44;4.58;;;4.58;;
71176;SDS011;58877;51.992;4.504;2022-11-15T09:01:17;5.38;;;5.38;;
71176;SDS011;58877;51.992;4.504;2022-11-15T09:03:44;4.65;;;4.65;;
71176;SDS011;58877;51.992;4.504;2022-11-15T09:06:09;4.73;;;4.73;;
71176;SDS011;58877;51.992;4.504;2022-11-15T09:08:35;4.61;;;4.60;;
71176;SDS011;58877;51.992;4.504;2022-11-15T09:11:05;4.63;;;4.63;;
71176;SDS011;58877;51.992;4.504;2022-11-15T09:13:32;4.63;;;4.61;;
71176;SDS011;58877;51.992;4.504;2022-11-15T09:16:02;4.61;;;4.58;;
71176;SDS011;58877;51.992;4.504;2022-11-15T09:18:29;4.61;;;4.60;;
71176;SDS011;58877;51.992;4.504;2022-11-15T09:20:58;4.67;;;4.67;;
71176;SDS011;58877;51.992;4.504;2022-11-15T09:23:28;4.79;;;4.78;;
71176;SDS011;58877;51.992;4.504;2022-11-15T09:26:04;4.65;;;4.65;;
71176;SDS011;58877;51.992;4.504;2022-11-15T09:28:30;4.41;;;4.41;;
71176;SDS011;58877;51.992;4.504;2022-11-15T09:31:01;4.85;;;4.84;;
71176;SDS011;58877;51.992;4.504;2022-11-15T09:33:29;4.93;;;4.93;;
71176;SDS011;58877;51.992;4.504;2022-11-15T09:35:59;4.56;;;4.56;;
71176;SDS011;58877;51.992;4.504;2022-11-15T09:38:29;4.56;;;4.56;;
71176;SDS011;58877;51.992;4.504;2022-11-15T09:43:59;4.35;;;4.35;;
71176;SDS011;58877;51.992;4.504;2022-11-15T09:46:37;4.30;;;4.28;;
71176;SDS011;58877;51.992;4.504;2022-11-15T09:49:20;4.12;;;4.10;;
71176;SDS011;58877;51.992;4.504;2022-11-15T09:51:48;4.24;;;4.23;;
71176;SDS011;58877;51.992;4.504;2022-11-15T09:57:12;3.91;;;3.91;;
71176;SDS011;58877;51.992;4.504;2022-11-15T10:05:18;3.13;;;3.12;;
71176;SDS011;58877;51.992;4.504;2022-11-15T10:08:03;3.07;;;3.07;;
71176;SDS011;58877;51.992;4.504;2022-11-15T10:11:06;3.05;;;3.04;;
71176;SDS011;58877;51.992;4.504;2022-11-15T10:13:41;2.87;;;2.83;;
71176;SDS011;58877;51.992;4.504;2022-11-15T10:24:23;2.97;;;2.89;;
71176;SDS011;58877;51.992;4.504;2022-11-15T10:26:53;3.03;;;2.96;;
71176;SDS011;58877;51.992;4.504;2022-11-15T10:29:20;3.17;;;3.11;;
71176;SDS011;58877;51.992;4.504;2022-11-15T10:31:47;2.92;;;2.87;;
71176;SDS011;58877;51.992;4.504;2022-11-15T10:34:14;2.86;;;2.83;;
71176;SDS011;58877;51.992;4.504;2022-11-15T10:36:58;3.40;;;3.36;;
71176;SDS011;58877;51.992;4.504;2022-11-15T10:39:25;3.05;;;2.99;;
71176;SDS011;58877;51.992;4.504;2022-11-15T10:41:52;3.31;;;3.23;;
71176;SDS011;58877;51.992;4.504;2022-11-15T10:49:57;3.22;;;3.18;;
71176;SDS011;58877;51.992;4.504;2022-11-15T10:52:24;3.08;;;3.05;;
71176;SDS011;58877;51.992;4.504;2022-11-15T10:54:54;3.09;;;3.07;;
71176;SDS011;58877;51.992;4.504;2022-11-15T10:57:31;2.92;;;2.91;;
71176;SDS011;58877;51.992;4.504;2022-11-15T11:00:04;3.22;;;3.13;;
71176;SDS011;58877;51.992;4.504;2022-11-15T11:02:39;3.19;;;3.04;;
71176;SDS011;58877;51.992;4.504;2022-11-15T11:05:26;2.76;;;2.60;;
71176;SDS011;58877;51.992;4.504;2022-11-15T11:08:03;3.08;;;2.87;;
71176;SDS011;58877;51.992;4.504;2022-11-15T11:10:33;2.76;;;2.63;;
71176;SDS011;58877;51.992;4.504;2022-11-15T11:13:12;2.62;;;2.54;;
71176;SDS011;58877;51.992;4.504;2022-11-15T11:15:39;2.49;;;2.39;;
71176;SDS011;58877;51.992;4.504;2022-11-15T11:18:19;2.59;;;2.48;;
71176;SDS011;58877;51.992;4.504;2022-11-15T11:20:56;2.44;;;2.32;;
71176;SDS011;58877;51.992;4.504;2022-11-15T11:23:48;2.62;;;2.40;;
71176;SDS011;58877;51.992;4.504;2022-11-15T11:35:22;2.16;;;2.01;;
71176;SDS011;58877;51.992;4.504;2022-11-15T11:41:06;2.22;;;2.05;;
71176;SDS011;58877;51.992;4.504;2022-11-15T11:52:34;2.09;;;1.82;;
71176;SDS011;58877;51.992;4.504;2022-11-15T11:55:22;2.30;;;2.06;;
71176;SDS011;58877;51.992;4.504;2022-11-15T11:58:17;2.33;;;2.01;;
71176;SDS011;58877;51.992;4.504;2022-11-15T12:00:52;2.40;;;2.11;;
71176;SDS011;58877;51.992;4.504;2022-11-15T12:03:34;1.99;;;1.74;;
71176;SDS011;58877;51.992;4.504;2022-11-15T12:16:57;2.21;;;1.87;;
71176;SDS011;58877;51.992;4.504;2022-11-15T12:19:23;2.15;;;1.80;;
71176;SDS011;58877;51.992;4.504;2022-11-15T12:22:02;2.48;;;1.98;;
71176;SDS011;58877;51.992;4.504;2022-11-15T12:24:48;2.29;;;1.82;;
71176;SDS011;58877;51.992;4.504;2022-11-15T12:27:41;2.31;;;1.86;;
71176;SDS011;58877;51.992;4.504;2022-11-15T12:30:20;1.94;;;1.53;;
71176;SDS011;58877;51.992;4.504;2022-11-15T12:33:03;2.16;;;1.72;;
71176;SDS011;58877;51.992;4.504;2022-11-15T12:35:34;2.27;;;1.81;;
71176;SDS011;58877;51.992;4.504;2022-11-15T12:38:49;2.09;;;1.63;;
71176;SDS011;58877;51.992;4.504;2022-11-15T12:41:19;2.39;;;1.86;;
71176;SDS011;58877;51.992;4.504;2022-11-15T12:43:46;2.22;;;1.72;;
71176;SDS011;58877;51.992;4.504;2022-11-15T12:46:20;2.21;;;1.70;;
71176;SDS011;58877;51.992;4.504;2022-11-15T12:48:54;2.27;;;1.75;;
71176;SDS011;58877;51.992;4.504;2022-11-15T12:51:22;2.26;;;1.75;;
71176;SDS011;58877;51.992;4.504;2022-11-15T12:59:48;1.84;;;1.45;;
71176;SDS011;58877;51.992;4.504;2022-11-15T13:02:26;1.73;;;1.37;;
71176;SDS011;58877;51.992;4.504;2022-11-15T13:17:44;2.14;;;1.75;;
71176;SDS011;58877;51.992;4.504;2022-11-15T13:20:22;1.91;;;1.57;;
71176;SDS011;58877;51.992;4.504;2022-11-15T13:33:20;2.33;;;1.83;;
71176;SDS011;58877;51.992;4.504;2022-11-15T13:36:03;1.71;;;1.35;;
71176;SDS011;58877;51.992;4.504;2022-11-15T13:38:39;1.98;;;1.53;;
71176;SDS011;58877;51.992;4.504;2022-11-15T13:41:27;1.95;;;1.44;;
71176;SDS011;58877;51.992;4.504;2022-11-15T13:43:58;2.11;;;1.57;;
71176;SDS011;58877;51.992;4.504;2022-11-15T13:46:29;2.24;;;1.66;;
71176;SDS011;58877;51.992;4.504;2022-11-15T13:49:00;2.16;;;1.61;;
71176;SDS011;58877;51.992;4.504;2022-11-15T13:51:46;2.22;;;1.66;;
71176;SDS011;58877;51.992;4.504;2022-11-15T13:57:04;2.10;;;1.62;;
71176;SDS011;58877;51.992;4.504;2022-11-15T13:59:35;2.24;;;1.74;;
71176;SDS011;58877;51.992;4.504;2022-11-15T14:02:26;1.85;;;1.48;;
71176;SDS011;58877;51.992;4.504;2022-11-15T14:05:15;2.00;;;1.59;;
71176;SDS011;58877;51.992;4.504;2022-11-15T14:07:53;1.63;;;1.27;;
71176;SDS011;58877;51.992;4.504;2022-11-15T14:10:28;1.80;;;1.42;;
71176;SDS011;58877;51.992;4.504;2022-11-15T14:13:01;1.94;;;1.55;;
71176;SDS011;58877;51.992;4.504;2022-11-15T14:15:37;1.74;;;1.38;;
71176;SDS011;58877;51.992;4.504;2022-11-15T14:18:04;2.13;;;1.66;;
71176;SDS011;58877;51.992;4.504;2022-11-15T14:20:32;2.04;;;1.57;;
71176;SDS011;58877;51.992;4.504;2022-11-15T14:23:25;2.14;;;1.61;;
71176;SDS011;58877;51.992;4.504;2022-11-15T14:25:54;2.03;;;1.55;;
71176;SDS011;58877;51.992;4.504;2022-11-15T14:30:51;2.06;;;1.58;;
71176;SDS011;58877;51.992;4.504;2022-11-15T14:33:37;1.93;;;1.49;;
71176;SDS011;58877;51.992;4.504;2022-11-15T14:38:31;1.82;;;1.41;;
71176;SDS011;58877;51.992;4.504;2022-11-15T14:40:57;2.48;;;1.95;;
71176;SDS011;58877;51.992;4.504;2022-11-15T14:43:23;2.11;;;1.66;;
71176;SDS011;58877;51.992;4.504;2022-11-15T14:45:49;1.69;;;1.36;;
71176;SDS011;58877;51.992;4.504;2022-11-15T14:48:15;1.93;;;1.54;;
71176;SDS011;58877;51.992;4.504;2022-11-15T14:50:40;1.62;;;1.31;;
71176;SDS011;58877;51.992;4.504;2022-11-15T14:53:06;1.74;;;1.41;;
71176;SDS011;58877;51.992;4.504;2022-11-15T14:55:36;1.81;;;1.51;;
71176;SDS011;58877;51.992;4.504;2022-11-15T14:58:02;1.62;;;1.34;;
71176;SDS011;58877;51.992;4.504;2022-11-15T15:00:29;1.72;;;1.43;;
71176;SDS011;58877;51.992;4.504;2022-11-15T15:02:56;2.01;;;1.66;;
71176;SDS011;58877;51.992;4.504;2022-11-15T15:05:28;2.00;;;1.70;;
71176;SDS011;58877;51.992;4.504;2022-11-15T15:08:06;1.41;;;1.24;;
71176;SDS011;58877;51.992;4.504;2022-11-15T15:10:39;1.89;;;1.68;;
71176;SDS011;58877;51.992;4.504;2022-11-15T15:13:17;1.65;;;1.50;;
71176;SDS011;58877;51.992;4.504;2022-11-15T15:15:45;1.51;;;1.37;;
71176;SDS011;58877;51.992;4.504;2022-11-15T15:18:12;1.41;;;1.28;;
71176;SDS011;58877;51.992;4.504;2022-11-15T15:20:38;1.51;;;1.37;;
71176;SDS011;58877;51.992;4.504;2022-11-15T15:23:10;1.44;;;1.31;;
71176;SDS011;58877;51.992;4.504;2022-11-15T15:25:41;1.38;;;1.27;;
71176;SDS011;58877;51.992;4.504;2022-11-15T15:28:07;1.08;;;0.99;;
71176;SDS011;58877;51.992;4.504;2022-11-15T15:30:32;1.45;;;1.34;;
71176;SDS011;58877;51.992;4.504;2022-11-15T15:32:58;1.42;;;1.33;;
71176;SDS011;58877;51.992;4.504;2022-11-15T15:35:23;1.67;;;1.56;;
71176;SDS011;58877;51.992;4.504;2022-11-15T15:37:58;1.78;;;1.66;;
71176;SDS011;58877;51.992;4.504;2022-11-15T15:40:24;1.78;;;1.67;;
71176;SDS011;58877;51.992;4.504;2022-11-15T15:42:52;1.55;;;1.47;;
71176;SDS011;58877;51.992;4.504;2022-11-15T15:45:18;1.29;;;1.22;;
71176;SDS011;58877;51.992;4.504;2022-11-15T15:47:44;1.56;;;1.48;;
71176;SDS011;58877;51.992;4.504;2022-11-15T15:50:27;1.73;;;1.65;;
71176;SDS011;58877;51.992;4.504;2022-11-15T15:52:56;1.55;;;1.46;;
71176;SDS011;58877;51.992;4.504;2022-11-15T15:55:23;1.68;;;1.58;;
71176;SDS011;58877;51.992;4.504;2022-11-15T15:57:49;1.55;;;1.44;;
71176;SDS011;58877;51.992;4.504;2022-11-15T16:00:16;1.61;;;1.47;;
71176;SDS011;58877;51.992;4.504;2022-11-15T16:02:43;1.69;;;1.56;;
71176;SDS011;58877;51.992;4.504;2022-11-15T16:05:09;2.10;;;1.94;;
71176;SDS011;58877;51.992;4.504;2022-11-15T16:07:36;2.21;;;2.05;;
71176;SDS011;58877;51.992;4.504;2022-11-15T16:10:08;1.85;;;1.73;;
71176;SDS011;58877;51.992;4.504;2022-11-15T16:12:43;1.84;;;1.71;;
71176;SDS011;58877;51.992;4.504;2022-11-15T16:15:09;1.68;;;1.58;;
71176;SDS011;58877;51.992;4.504;2022-11-15T16:17:39;1.64;;;1.54;;
71176;SDS011;58877;51.992;4.504;2022-11-15T16:20:15;1.63;;;1.55;;
71176;SDS011;58877;51.992;4.504;2022-11-15T16:22:51;2.22;;;2.08;;
71176;SDS011;58877;51.992;4.504;2022-11-15T16:25:23;1.50;;;1.39;;
71176;SDS011;58877;51.992;4.504;2022-11-15T16:27:49;1.99;;;1.88;;
71176;SDS011;58877;51.992;4.504;2022-11-15T16:30:23;2.14;;;2.03;;
71176;SDS011;58877;51.992;4.504;2022-11-15T16:33:08;1.94;;;1.86;;
71176;SDS011;58877;51.992;4.504;2022-11-15T16:35:42;2.04;;;1.95;;
71176;SDS011;58877;51.992;4.504;2022-11-15T16:38:14;1.99;;;1.91;;
71176;SDS011;58877;51.992;4.504;2022-11-15T16:40:41;1.94;;;1.86;;
71176;SDS011;58877;51.992;4.504;2022-11-15T16:43:07;1.99;;;1.94;;
71176;SDS011;58877;51.992;4.504;2022-11-15T16:45:35;2.42;;;2.38;;
71176;SDS011;58877;51.992;4.504;2022-11-15T16:48:01;2.09;;;2.04;;
71176;SDS011;58877;51.992;4.504;2022-11-15T16:50:28;2.11;;;2.05;;
71176;SDS011;58877;51.992;4.504;2022-11-15T16:52:57;2.06;;;2.02;;
71176;SDS011;58877;51.992;4.504;2022-11-15T16:55:24;2.59;;;2.53;;
71176;SDS011;58877;51.992;4.504;2022-11-15T16:57:53;2.38;;;2.34;;
71176;SDS011;58877;51.992;4.504;2022-11-15T17:00:20;2.29;;;2.26;;
71176;SDS011;58877;51.992;4.504;2022-11-15T17:02:47;2.13;;;2.10;;
71176;SDS011;58877;51.992;4.504;2022-11-15T17:05:16;2.60;;;2.55;;
71176;SDS011;58877;51.992;4.504;2022-11-15T17:07:45;2.37;;;2.33;;
71176;SDS011;58877;51.992;4.504;2022-11-15T17:10:22;2.23;;;2.21;;
71176;SDS011;58877;51.992;4.504;2022-11-15T17:12:49;1.89;;;1.89;;
71176;SDS011;58877;51.992;4.504;2022-11-15T17:15:16;2.51;;;2.51;;